Ajo, Arizona
Current Conditions -  °F | °C
As of 8:55 PM on Sunday 23 Nov 2014 (Local Time) from KBXK Reporting Station
Clear Clear  
Wind Chill: 54°   Ceiling: Unl
Heat Index: 54°   Visibility: 10mi
Dew Point:   Wind: 9mph
Humidity: 14%   Direction: 330°NNW
Pressure: 30.11"   Gusts: NA
Location:  32.37°N, 112.86°W
Report Text: KBXK 240355Z AUTO 33008KT 10SM CLR 12/M15 A3011 RMK AO1
Loading
Personal Weather Stations






























Interactive Weather Map New forecast layout! Learn more

10-Day Weather Forecast

Advertisements
Track Severe Weather on mobile